Americus, Kansas
Current Conditions -  °F | °C
As of 2:53 AM on Sunday 26 Oct 2014 (Local Time) from KEMP Reporting Station
Clear Clear  
Wind Chill: 62°   Ceiling: Unl
Heat Index: 62°   Visibility: 8mi
Dew Point: 60°   Wind: 12mph
Humidity: 93%   Direction: 170°S
Pressure: 29.93"   Gusts: NA
Location:  38.51°N, 96.26°W
Report Text: KEMP 260753Z AUTO 17010KT 8SM CLR 17/16 A2993 RMK AO2 SLP126 T01670156
Loading
Personal Weather Stations






























Interactive Weather Map
Tropical Storm Tracking
New forecast layout! Learn more

10-Day Weather Forecast

Advertisements
Track Severe Weather on mobile